Time;durP1;ratioP1;P1;durP2;ratioP2;P2;SDS_P1;SDS_P2;PMS_P1;PMS_P2;Temp;Humidity;BMP_temperature;BMP_pressure;BME280_temperature;BME280_humidity;BME280_pressure;Samples;Min_cycle;Max_cycle;Signal;HPM_P1;HPM_P2
2023/09/12 00:00:49;;;;;;;23.55;19.25;;;19.70;99.90;;;;;;4992603;28;20131;-72
2023/09/12 00:03:21;;;;;;;23.88;19.00;;;19.70;99.90;;;;;;5011776;28;20062;-71
2023/09/12 00:05:56;;;;;;;23.70;19.63;;;19.70;99.90;;;;;;4995398;28;20038;-72
2023/09/12 00:08:24;;;;;;;22.00;18.73;;;19.70;99.90;;;;;;4978519;28;20134;-71
2023/09/12 00:11:10;;;;;;;23.95;19.63;;;19.60;99.90;;;;;;4977334;28;20088;-71
2023/09/12 00:13:39;;;;;;;28.15;20.88;;;19.60;99.90;;;;;;4996890;28;20045;-70
2023/09/12 00:16:11;;;;;;;23.77;21.08;;;19.60;99.90;;;;;;4995279;28;20071;-72
2023/09/12 00:18:40;;;;;;;28.58;21.52;;;19.50;99.90;;;;;;5012888;28;20052;-72
2023/09/12 00:21:08;;;;;;;24.15;21.33;;;19.50;99.90;;;;;;5014257;28;20096;-72
2023/09/12 00:23:35;;;;;;;27.80;22.55;;;19.50;99.90;;;;;;5011682;28;20088;-70
2023/09/12 00:26:03;;;;;;;25.80;21.20;;;19.50;99.90;;;;;;4989873;28;20487;-71
2023/09/12 00:28:30;;;;;;;24.98;21.15;;;19.50;99.90;;;;;;5006056;28;20053;-71
2023/09/12 00:30:58;;;;;;;23.92;20.15;;;19.50;99.90;;;;;;4993497;28;20100;-72
2023/09/12 00:33:25;;;;;;;25.42;19.17;;;19.50;99.90;;;;;;4993450;28;20076;-72
2023/09/12 00:35:53;;;;;;;23.15;18.77;;;19.50;99.90;;;;;;5011431;28;20042;-71
2023/09/12 00:38:21;;;;;;;23.20;18.90;;;19.40;99.90;;;;;;4993123;28;20034;-71
2023/09/12 00:40:48;;;;;;;22.90;17.60;;;19.40;99.90;;;;;;4993064;28;20601;-71
2023/09/12 00:43:16;;;;;;;24.08;17.23;;;19.40;99.90;;;;;;5010873;28;20510;-72
2023/09/12 00:45:45;;;;;;;22.35;16.27;;;19.40;99.90;;;;;;5010581;28;20050;-70
2023/09/12 00:48:14;;;;;;;23.60;16.02;;;19.40;99.90;;;;;;4993062;28;20049;-72
2023/09/12 00:50:44;;;;;;;21.92;15.45;;;19.50;99.90;;;;;;4990064;28;20395;-71
2023/09/12 00:53:14;;;;;;;26.60;16.98;;;19.40;99.90;;;;;;5008530;28;20419;-71
2023/09/12 00:55:49;;;;;;;21.75;16.27;;;19.40;99.90;;;;;;5007025;28;20066;-72
2023/09/12 00:58:17;;;;;;;19.58;16.42;;;19.50;99.90;;;;;;4998103;28;20050;-71
2023/09/12 01:00:45;;;;;;;27.33;15.93;;;19.40;99.90;;;;;;4993070;28;20382;-70
2023/09/12 01:03:13;;;;;;;21.27;15.32;;;19.40;99.90;;;;;;4992703;28;20042;-71
2023/09/12 01:05:42;;;;;;;23.98;15.63;;;19.40;99.90;;;;;;5006640;28;20077;-70
2023/09/12 01:08:11;;;;;;;20.25;14.75;;;19.40;99.90;;;;;;5010286;28;20041;-71
2023/09/12 01:10:39;;;;;;;16.77;14.05;;;19.30;99.90;;;;;;5010641;28;20054;-71
2023/09/12 01:13:08;;;;;;;19.80;15.02;;;19.30;99.90;;;;;;5011258;28;20128;-70
2023/09/12 01:15:35;;;;;;;26.42;15.52;;;19.20;99.90;;;;;;4976635;28;20054;-71
2023/09/12 01:18:04;;;;;;;21.20;15.45;;;19.10;99.90;;;;;;5010019;28;20857;-71
2023/09/12 01:20:34;;;;;;;25.33;15.90;;;19.10;99.90;;;;;;5008650;28;20101;-70
2023/09/12 01:23:39;;;;;;;22.17;16.40;;;19.00;99.90;;;;;;4975661;28;20038;-71
2023/09/12 01:26:44;;;;;;;21.95;16.48;;;18.90;99.90;;;;;;5008184;28;20042;-71
2023/09/12 01:29:13;;;;;;;22.40;17.20;;;18.90;99.90;;;;;;4996694;28;20518;-70
2023/09/12 01:31:42;;;;;;;27.42;17.15;;;18.80;99.90;;;;;;5004847;28;20054;-70
2023/09/12 01:34:11;;;;;;;22.63;17.85;;;18.80;99.90;;;;;;5007232;28;20477;-71
2023/09/12 01:36:39;;;;;;;19.90;16.98;;;18.80;99.90;;;;;;5004225;28;20403;-70
2023/09/12 01:39:07;;;;;;;22.60;18.35;;;18.80;99.90;;;;;;4997178;28;20034;-70
2023/09/12 01:41:38;;;;;;;25.85;18.88;;;18.80;99.90;;;;;;5009591;28;20053;-70
2023/09/12 01:44:08;;;;;;;23.00;18.52;;;18.80;99.90;;;;;;4997028;28;20053;-70
2023/09/12 01:46:37;;;;;;;21.98;18.58;;;18.70;99.90;;;;;;5010193;28;20045;-71
2023/09/12 01:49:07;;;;;;;23.55;18.95;;;18.70;99.90;;;;;;5008880;28;20050;-71
2023/09/12 01:51:35;;;;;;;22.65;17.65;;;18.70;99.90;;;;;;5009720;28;20045;-70
2023/09/12 01:54:03;;;;;;;24.52;18.77;;;18.60;99.90;;;;;;4991541;28;20454;-70
2023/09/12 01:56:32;;;;;;;22.90;18.77;;;18.60;99.90;;;;;;4992058;28;20041;-71
2023/09/12 01:59:00;;;;;;;21.73;17.92;;;18.60;99.90;;;;;;4992471;28;20479;-71
2023/09/12 02:01:27;;;;;;;24.52;19.13;;;18.50;99.90;;;;;;4975753;28;20127;-71
2023/09/12 02:03:55;;;;;;;26.15;18.65;;;18.40;99.90;;;;;;4990939;28;20045;-71
2023/09/12 02:06:22;;;;;;;23.88;18.95;;;18.40;99.90;;;;;;4976039;28;20115;-71
2023/09/12 02:08:50;;;;;;;21.38;18.00;;;18.40;99.90;;;;;;5007993;28;20131;-71
2023/09/12 02:11:17;;;;;;;23.80;18.05;;;18.40;99.90;;;;;;5008836;28;20034;-72
2023/09/12 02:13:45;;;;;;;23.80;18.63;;;18.40;99.90;;;;;;4991722;28;20577;-69
2023/09/12 02:16:13;;;;;;;22.67;17.13;;;18.40;99.90;;;;;;5008040;28;20038;-71
2023/09/12 02:18:40;;;;;;;22.88;16.65;;;18.40;99.90;;;;;;4965172;28;20049;-71
2023/09/12 02:21:09;;;;;;;23.75;18.50;;;18.40;99.90;;;;;;4990040;28;20049;-71
2023/09/12 02:23:36;;;;;;;27.20;19.05;;;18.40;99.90;;;;;;5008728;28;20415;-71
2023/09/12 02:26:05;;;;;;;26.48;18.75;;;18.30;99.90;;;;;;4988334;28;20070;-71
2023/09/12 02:28:32;;;;;;;23.15;18.60;;;18.30;99.90;;;;;;4974012;28;20062;-71
2023/09/12 02:31:00;;;;;;;22.33;17.67;;;18.30;99.90;;;;;;4985526;28;20077;-71
2023/09/12 02:33:28;;;;;;;26.73;19.70;;;18.30;99.90;;;;;;4988380;28;20419;-71
2023/09/12 02:35:55;;;;;;;23.98;19.55;;;18.30;99.90;;;;;;4990893;28;20049;-71
2023/09/12 02:38:23;;;;;;;23.02;19.67;;;18.30;99.90;;;;;;5007672;28;20041;-71
2023/09/12 02:40:50;;;;;;;27.48;19.95;;;18.30;99.90;;;;;;5008347;28;20046;-71
2023/09/12 02:43:18;;;;;;;22.17;18.65;;;18.20;99.90;;;;;;5007194;28;20044;-71
2023/09/12 02:45:45;;;;;;;24.13;19.15;;;18.20;99.90;;;;;;4974832;28;20139;-70
2023/09/12 02:48:14;;;;;;;25.48;19.45;;;18.20;99.90;;;;;;5007507;28;20042;-70
2023/09/12 02:50:41;;;;;;;24.15;20.02;;;18.20;99.90;;;;;;4989521;28;20482;-70
2023/09/12 02:53:09;;;;;;;27.02;20.20;;;18.20;99.90;;;;;;4993816;28;20100;-70
2023/09/12 02:55:40;;;;;;;25.00;19.52;;;18.20;99.90;;;;;;4994555;28;20046;-71
2023/09/12 02:58:08;;;;;;;22.58;18.45;;;18.10;99.90;;;;;;4993847;28;20038;-70
2023/09/12 03:00:40;;;;;;;25.17;19.83;;;18.10;99.90;;;;;;4977711;28;20052;-71
2023/09/12 03:03:09;;;;;;;26.15;19.80;;;18.10;99.90;;;;;;4994642;28;20046;-71
2023/09/12 03:05:38;;;;;;;26.02;21.10;;;18.10;99.90;;;;;;4978685;28;20510;-71
2023/09/12 03:08:05;;;;;;;25.30;19.50;;;18.10;99.90;;;;;;4994501;28;20064;-70
2023/09/12 03:10:33;;;;;;;24.40;19.20;;;18.10;99.90;;;;;;5007369;28;20132;-71
2023/09/12 03:13:01;;;;;;;27.50;19.83;;;18.10;99.90;;;;;;4967923;28;20076;-71
2023/09/12 03:15:28;;;;;;;26.70;19.45;;;18.10;99.90;;;;;;5011443;28;20042;-71
2023/09/12 03:17:56;;;;;;;26.60;19.55;;;18.10;99.90;;;;;;4993512;28;20104;-71
2023/09/12 03:20:23;;;;;;;26.30;18.65;;;18.10;99.90;;;;;;5012213;28;20042;-72
2023/09/12 03:22:51;;;;;;;22.20;18.60;;;18.10;99.90;;;;;;4995006;28;20057;-71
2023/09/12 03:25:18;;;;;;;24.15;18.13;;;18.00;99.90;;;;;;5011890;28;20133;-72
2023/09/12 03:27:46;;;;;;;22.10;18.48;;;18.00;99.90;;;;;;5011350;28;20422;-70
2023/09/12 03:30:13;;;;;;;25.65;20.00;;;18.00;99.90;;;;;;4976746;28;20096;-71
2023/09/12 03:32:43;;;;;;;23.58;18.65;;;18.00;99.90;;;;;;4977647;28;20161;-71
2023/09/12 03:35:11;;;;;;;22.00;18.08;;;17.90;99.90;;;;;;4995121;28;20064;-71
2023/09/12 03:37:42;;;;;;;23.58;18.38;;;17.90;99.90;;;;;;5009416;28;20509;-71
2023/09/12 03:40:12;;;;;;;22.97;19.00;;;18.00;99.90;;;;;;5012550;28;20055;-71
2023/09/12 03:42:39;;;;;;;25.27;18.42;;;18.00;99.90;;;;;;5006095;28;20053;-71
2023/09/12 03:45:10;;;;;;;26.58;18.08;;;18.00;99.90;;;;;;5009634;28;20037;-70
2023/09/12 03:47:37;;;;;;;27.33;19.00;;;17.90;99.90;;;;;;4976160;28;20045;-71
2023/09/12 03:50:06;;;;;;;24.88;19.58;;;17.90;99.90;;;;;;4976749;28;20050;-70
2023/09/12 03:52:34;;;;;;;27.75;20.65;;;17.90;99.90;;;;;;4993627;28;20042;-71
2023/09/12 03:55:02;;;;;;;25.63;19.00;;;17.80;99.90;;;;;;4976763;28;20050;-71
2023/09/12 03:57:31;;;;;;;23.02;20.02;;;17.80;99.90;;;;;;4994446;28;20174;-71
2023/09/12 03:59:59;;;;;;;24.45;19.35;;;17.80;99.90;;;;;;4992925;28;20044;-71
2023/09/12 04:02:26;;;;;;;26.42;20.33;;;17.80;99.90;;;;;;4993222;28;20679;-71
2023/09/12 04:04:54;;;;;;;26.35;19.67;;;17.80;99.90;;;;;;4991683;28;20145;-71
2023/09/12 04:07:21;;;;;;;24.25;18.85;;;17.80;99.90;;;;;;4978452;28;20133;-71
2023/09/12 04:09:49;;;;;;;26.67;20.02;;;17.80;99.90;;;;;;4976615;28;20060;-71
2023/09/12 04:12:16;;;;;;;31.30;21.30;;;17.80;99.90;;;;;;4993963;28;20221;-71
2023/09/12 04:14:44;;;;;;;25.67;20.75;;;17.70;99.90;;;;;;4992518;28;20049;-71
2023/09/12 04:17:11;;;;;;;22.75;19.08;;;17.70;99.90;;;;;;5009491;28;20042;-71
2023/09/12 04:19:39;;;;;;;24.60;19.85;;;17.70;99.90;;;;;;5008623;28;20065;-70
2023/09/12 04:22:06;;;;;;;29.90;21.95;;;17.70;99.90;;;;;;4976715;28;20083;-71
2023/09/12 04:24:33;;;;;;;24.17;21.58;;;17.70;99.90;;;;;;4992056;28;20056;-70
2023/09/12 04:27:01;;;;;;;27.73;20.60;;;17.70;99.90;;;;;;4993747;28;20058;-71
2023/09/12 04:29:30;;;;;;;27.35;20.67;;;17.70;99.90;;;;;;4990941;28;20068;-70
2023/09/12 04:31:59;;;;;;;27.92;21.05;;;17.70;99.90;;;;;;4991656;28;20042;-70
2023/09/12 04:34:27;;;;;;;25.85;19.60;;;17.80;99.90;;;;;;4963706;28;20054;-70
2023/09/12 04:36:55;;;;;;;22.95;16.58;;;17.80;99.90;;;;;;4991802;28;20049;-70
2023/09/12 04:39:24;;;;;;;22.83;17.23;;;17.80;99.90;;;;;;5009266;28;20068;-70
2023/09/12 04:41:52;;;;;;;23.08;16.85;;;17.80;99.90;;;;;;4990153;28;20095;-70
2023/09/12 04:44:20;;;;;;;22.42;17.75;;;17.80;99.90;;;;;;4990982;28;20168;-72
2023/09/12 04:46:48;;;;;;;24.23;17.25;;;17.80;99.90;;;;;;4992731;28;20108;-71
2023/09/12 04:49:15;;;;;;;23.92;16.73;;;17.80;99.90;;;;;;4992303;28;20033;-72
2023/09/12 04:51:43;;;;;;;26.42;17.13;;;17.80;99.90;;;;;;4976127;28;20049;-72
2023/09/12 04:54:10;;;;;;;24.48;17.13;;;17.80;99.90;;;;;;4991455;28;20426;-72
2023/09/12 04:56:38;;;;;;;28.55;17.73;;;17.80;99.90;;;;;;4976693;28;20045;-72
2023/09/12 04:59:06;;;;;;;22.42;16.85;;;17.80;99.90;;;;;;4975679;28;20497;-72
2023/09/12 05:01:33;;;;;;;22.70;17.40;;;17.80;99.90;;;;;;4988923;28;20062;-71
2023/09/12 05:04:02;;;;;;;20.38;16.25;;;17.80;99.90;;;;;;5009236;28;20045;-71
2023/09/12 05:06:30;;;;;;;25.75;16.40;;;17.80;99.90;;;;;;5000235;28;20046;-72
2023/09/12 05:08:58;;;;;;;21.50;16.30;;;17.90;99.90;;;;;;4993234;28;20096;-71
2023/09/12 05:11:25;;;;;;;23.88;17.52;;;17.90;99.90;;;;;;4974856;28;20479;-72
2023/09/12 05:13:53;;;;;;;22.98;16.98;;;18.00;99.90;;;;;;5009337;28;20057;-71
2023/09/12 05:16:20;;;;;;;26.02;17.40;;;18.10;99.90;;;;;;4976764;28;20092;-72
2023/09/12 05:18:49;;;;;;;24.48;16.48;;;18.10;99.90;;;;;;4993061;28;20145;-70
2023/09/12 05:21:17;;;;;;;23.27;16.35;;;18.10;99.90;;;;;;4993149;28;20030;-70
2023/09/12 05:23:44;;;;;;;22.88;15.70;;;18.20;99.90;;;;;;4992684;28;20046;-70
2023/09/12 05:26:12;;;;;;;22.55;15.90;;;18.30;99.90;;;;;;4992305;28;20053;-70
2023/09/12 05:28:40;;;;;;;22.23;16.15;;;18.30;99.90;;;;;;5004143;28;20038;-70
2023/09/12 05:31:08;;;;;;;21.35;16.13;;;18.40;99.90;;;;;;4976074;28;20120;-72
2023/09/12 05:33:36;;;;;;;24.48;15.85;;;18.50;99.90;;;;;;4985518;28;20042;-70
2023/09/12 05:36:04;;;;;;;20.80;15.55;;;18.50;99.90;;;;;;4987796;28;20045;-70
2023/09/12 05:38:31;;;;;;;21.98;15.82;;;18.50;99.90;;;;;;4975274;28;20475;-72
2023/09/12 05:40:59;;;;;;;24.25;15.57;;;18.50;99.90;;;;;;4990221;28;20359;-73
2023/09/12 05:43:26;;;;;;;22.92;16.65;;;18.50;99.90;;;;;;4963135;28;20069;-73
2023/09/12 05:45:54;;;;;;;25.27;15.95;;;18.50;99.90;;;;;;5005926;28;20044;-73
2023/09/12 05:48:21;;;;;;;24.67;16.50;;;18.60;99.90;;;;;;5005228;28;20045;-70
2023/09/12 05:50:50;;;;;;;23.20;17.05;;;18.70;99.90;;;;;;4990525;28;20054;-72
2023/09/12 05:53:17;;;;;;;27.48;16.60;;;18.70;99.90;;;;;;4990604;28;20055;-72
2023/09/12 05:55:46;;;;;;;29.13;16.75;;;18.80;99.90;;;;;;4989868;28;20130;-70
2023/09/12 05:58:14;;;;;;;22.27;16.20;;;18.90;99.90;;;;;;4974119;28;20185;-70
2023/09/12 06:00:42;;;;;;;22.48;16.08;;;19.00;99.90;;;;;;5008928;28;20422;-71
2023/09/12 06:03:12;;;;;;;22.55;16.70;;;19.00;99.90;;;;;;4991074;28;20108;-71
2023/09/12 06:05:39;;;;;;;20.58;15.25;;;19.10;99.90;;;;;;4992915;28;20053;-71
2023/09/12 06:08:07;;;;;;;22.17;15.95;;;19.20;99.90;;;;;;5009172;28;20184;-71
2023/09/12 06:10:34;;;;;;;22.05;16.60;;;19.30;99.90;;;;;;4991801;28;20152;-71
2023/09/12 06:13:02;;;;;;;22.35;17.00;;;19.30;99.90;;;;;;5008687;28;20042;-71
2023/09/12 06:15:30;;;;;;;21.55;15.27;;;19.30;99.90;;;;;;4974573;28;20057;-70
2023/09/12 06:17:57;;;;;;;23.58;15.57;;;19.40;99.90;;;;;;4992805;28;20038;-71
2023/09/12 06:20:25;;;;;;;24.65;16.17;;;19.40;99.90;;;;;;4991304;28;20054;-72
2023/09/12 06:22:52;;;;;;;25.38;15.68;;;19.50;99.90;;;;;;5004663;28;20049;-74
2023/09/12 06:25:20;;;;;;;23.58;16.63;;;19.60;99.90;;;;;;4988888;28;20042;-73
2023/09/12 06:27:47;;;;;;;23.50;16.55;;;19.80;99.90;;;;;;5003237;28;20453;-70
2023/09/12 06:30:15;;;;;;;22.58;16.80;;;20.00;99.90;;;;;;5005619;28;20430;-71
2023/09/12 06:32:42;;;;;;;23.15;15.70;;;20.20;99.90;;;;;;4974970;28;20046;-72
2023/09/12 06:35:10;;;;;;;22.48;15.90;;;20.20;99.90;;;;;;4991516;28;20052;-74
2023/09/12 06:37:41;;;;;;;21.23;15.48;;;20.40;99.90;;;;;;4988826;28;20137;-74
2023/09/12 06:40:10;;;;;;;21.80;15.23;;;20.40;99.90;;;;;;5005631;28;20340;-74
2023/09/12 06:42:38;;;;;;;19.88;15.93;;;20.60;99.90;;;;;;5005782;28;20046;-73
2023/09/12 06:45:06;;;;;;;25.58;15.88;;;20.70;99.90;;;;;;5006811;28;20517;-71
2023/09/12 06:47:34;;;;;;;21.27;16.75;;;20.80;99.90;;;;;;5010096;28;20131;-72
2023/09/12 06:50:02;;;;;;;18.70;14.85;;;20.70;99.90;;;;;;5009180;28;20469;-72
2023/09/12 06:52:31;;;;;;;25.58;17.02;;;20.80;99.90;;;;;;5008540;28;20052;-73
2023/09/12 06:54:58;;;;;;;24.40;16.17;;;20.80;99.90;;;;;;5003475;28;20042;-71
2023/09/12 06:57:26;;;;;;;24.25;16.55;;;20.80;99.90;;;;;;5007532;28;20046;-73
2023/09/12 06:59:53;;;;;;;24.95;15.98;;;20.80;99.90;;;;;;5006621;28;20061;-72
2023/09/12 07:02:21;;;;;;;20.85;15.52;;;20.90;99.90;;;;;;4989078;28;20049;-72
2023/09/12 07:04:49;;;;;;;19.75;15.15;;;21.10;99.90;;;;;;5008559;28;20485;-71
2023/09/12 07:07:16;;;;;;;18.77;13.98;;;21.10;99.90;;;;;;4976195;28;20141;-72
2023/09/12 07:09:43;;;;;;;19.33;13.23;;;21.20;99.90;;;;;;4979256;28;20153;-72
2023/09/12 07:12:11;;;;;;;23.55;15.82;;;21.30;99.90;;;;;;5008024;28;20042;-72
2023/09/12 07:14:38;;;;;;;23.58;16.50;;;21.40;99.90;;;;;;4988864;28;20105;-72
2023/09/12 07:17:08;;;;;;;23.83;16.20;;;21.50;99.90;;;;;;4989179;28;20038;-72
2023/09/12 07:19:35;;;;;;;18.63;15.27;;;21.50;99.90;;;;;;4989434;28;20052;-71
2023/09/12 07:22:04;;;;;;;20.42;16.08;;;21.60;99.90;;;;;;5007803;28;20140;-71
2023/09/12 07:24:33;;;;;;;22.42;16.50;;;21.60;99.90;;;;;;5006960;28;20052;-72
2023/09/12 07:27:01;;;;;;;24.17;15.82;;;21.70;99.90;;;;;;5007579;28;20473;-71
2023/09/12 07:29:28;;;;;;;22.15;16.08;;;21.80;99.90;;;;;;4990867;28;20137;-72
2023/09/12 07:31:55;;;;;;;22.15;15.88;;;21.90;99.90;;;;;;4991193;28;20046;-71
2023/09/12 07:34:27;;;;;;;20.17;16.15;;;22.00;99.90;;;;;;4986353;28;20057;-70
2023/09/12 07:36:54;;;;;;;23.00;16.63;;;22.10;99.90;;;;;;5006257;28;20053;-71
2023/09/12 07:39:21;;;;;;;22.33;16.17;;;22.30;99.90;;;;;;4991709;28;20061;-73
2023/09/12 07:41:49;;;;;;;18.85;15.70;;;22.40;99.90;;;;;;5011440;28;20152;-73
2023/09/12 07:44:16;;;;;;;24.20;16.73;;;22.50;99.90;;;;;;4993605;28;20042;-73
2023/09/12 07:46:44;;;;;;;23.33;16.58;;;22.70;99.90;;;;;;4994425;28;20607;-73
2023/09/12 07:49:11;;;;;;;21.77;17.08;;;22.80;99.90;;;;;;4969756;28;20044;-73
2023/09/12 07:51:39;;;;;;;21.48;16.70;;;22.90;99.90;;;;;;5011035;28;20045;-73
2023/09/12 07:54:07;;;;;;;22.52;16.05;;;23.10;99.90;;;;;;5005495;28;20052;-73
2023/09/12 07:56:34;;;;;;;21.58;16.63;;;23.20;99.90;;;;;;4993561;28;20081;-73
2023/09/12 07:59:02;;;;;;;18.27;15.70;;;23.20;99.90;;;;;;4993102;28;20127;-70
2023/09/12 08:01:29;;;;;;;19.80;14.52;;;23.30;99.90;;;;;;5009628;28;20073;-73
2023/09/12 08:03:57;;;;;;;18.73;14.73;;;23.20;99.90;;;;;;5009893;28;20076;-71
2023/09/12 08:06:25;;;;;;;20.15;15.77;;;23.30;99.90;;;;;;4992235;28;20049;-74
2023/09/12 08:08:52;;;;;;;30.15;17.15;;;23.40;99.90;;;;;;5011394;28;20042;-71
2023/09/12 08:11:20;;;;;;;19.95;15.20;;;23.40;99.90;;;;;;4991212;28;20161;-71
2023/09/12 08:13:49;;;;;;;24.58;16.52;;;23.60;99.90;;;;;;5002797;28;20453;-71
2023/09/12 08:16:17;;;;;;;23.77;16.00;;;23.70;99.90;;;;;;5010893;28;20065;-72
2023/09/12 08:18:46;;;;;;;22.30;16.38;;;23.60;99.90;;;;;;5011389;28;20092;-73
2023/09/12 08:21:13;;;;;;;21.00;16.35;;;23.60;99.90;;;;;;4977500;28;20068;-73
2023/09/12 08:23:41;;;;;;;16.88;14.80;;;23.90;99.90;;;;;;5006093;28;20046;-72
2023/09/12 08:26:10;;;;;;;18.90;15.07;;;24.00;99.90;;;;;;4993083;28;20057;-73
2023/09/12 08:28:38;;;;;;;26.35;18.27;;;24.20;99.90;;;;;;4992452;28;20176;-73
2023/09/12 08:31:05;;;;;;;21.92;15.70;;;24.30;99.90;;;;;;4976483;28;20080;-73
2023/09/12 08:33:33;;;;;;;24.50;15.25;;;24.40;99.90;;;;;;5011152;28;20074;-72
2023/09/12 08:36:00;;;;;;;20.00;14.90;;;24.50;99.90;;;;;;4992034;28;20457;-72
2023/09/12 08:38:28;;;;;;;16.83;14.70;;;24.70;99.90;;;;;;5009834;28;20094;-72
2023/09/12 08:40:56;;;;;;;21.75;14.82;;;24.80;99.90;;;;;;4991376;28;20345;-72
2023/09/12 08:43:24;;;;;;;18.10;14.45;;;24.90;99.90;;;;;;5008514;28;21663;-71
2023/09/12 08:45:52;;;;;;;20.85;14.05;;;25.00;99.90;;;;;;4990924;28;20149;-71
2023/09/12 08:48:22;;;;;;;21.08;15.10;;;25.10;99.90;;;;;;5005564;28;20038;-72
2023/09/12 08:50:53;;;;;;;16.33;14.18;;;25.30;99.90;;;;;;4974653;28;20490;-71
2023/09/12 08:53:22;;;;;;;18.95;15.32;;;25.50;99.90;;;;;;4989433;28;20048;-71
2023/09/12 08:55:52;;;;;;;17.88;13.45;;;25.60;99.90;;;;;;4991962;28;20122;-71
2023/09/12 08:58:21;;;;;;;21.67;14.48;;;25.70;99.90;;;;;;5007807;28;20109;-71
2023/09/12 09:00:50;;;;;;;16.02;14.02;;;25.80;99.90;;;;;;5001898;28;20411;-71
2023/09/12 09:03:18;;;;;;;18.50;13.25;;;25.90;99.90;;;;;;4991033;28;20617;-72
2023/09/12 09:05:48;;;;;;;22.70;14.88;;;26.00;99.90;;;;;;5005291;28;20038;-72
2023/09/12 09:08:17;;;;;;;22.35;13.05;;;26.10;99.90;;;;;;4979545;28;20046;-71
2023/09/12 09:10:58;;;;;;;18.42;13.63;;;26.20;99.90;;;;;;4991754;28;20084;-72
2023/09/12 09:13:26;;;;;;;27.00;14.45;;;26.40;99.90;;;;;;4990905;28;20081;-71
2023/09/12 09:16:14;;;;;;;23.65;13.93;;;26.50;99.90;;;;;;4991763;28;20065;-71
2023/09/12 09:19:03;;;;;;;19.60;13.45;;;26.70;99.90;;;;;;4963112;28;20573;-72
2023/09/12 09:21:32;;;;;;;22.08;13.27;;;26.90;99.90;;;;;;5004190;28;20038;-71
2023/09/12 09:24:03;;;;;;;18.17;13.50;;;27.10;99.90;;;;;;5008566;28;20049;-71
2023/09/12 09:26:44;;;;;;;;;;;27.30;99.90;;;;;;4984736;28;20045;-71
2023/09/12 09:29:17;;;;;;;20.83;13.80;;;27.40;99.90;;;;;;4991818;28;20381;-71
2023/09/12 09:31:47;;;;;;;16.30;13.27;;;27.40;99.90;;;;;;4991449;28;20140;-71
2023/09/12 09:34:17;;;;;;;20.00;13.50;;;27.50;99.90;;;;;;4988462;28;20369;-71
2023/09/12 09:36:48;;;;;;;17.08;13.68;;;27.50;99.90;;;;;;5008897;28;20149;-71
2023/09/12 09:39:18;;;;;;;14.25;12.38;;;27.50;99.90;;;;;;4990284;28;20073;-73
2023/09/12 09:41:55;;;;;;;14.95;12.68;;;27.70;99.90;;;;;;4991773;28;20050;-73
2023/09/12 09:44:26;;;;;;;13.05;11.75;;;27.70;99.90;;;;;;4990472;28;20050;-73
2023/09/12 09:47:03;;;;;;;14.80;12.73;;;27.80;99.90;;;;;;5006961;28;20399;-73
2023/09/12 09:49:36;;;;;;;16.73;13.00;;;27.90;99.90;;;;;;5007295;28;20046;-73
2023/09/12 09:52:05;;;;;;;14.93;13.43;;;28.00;99.90;;;;;;4990373;28;20076;-72
2023/09/12 09:54:32;;;;;;;17.77;13.43;;;28.20;99.90;;;;;;5007101;28;20049;-72
2023/09/12 09:57:00;;;;;;;17.10;13.43;;;28.10;99.90;;;;;;4988442;28;20353;-73
2023/09/12 09:59:28;;;;;;;14.63;12.75;;;28.00;99.90;;;;;;4990854;28;20136;-73
2023/09/12 10:01:59;;;;;;;14.45;12.93;;;28.30;99.90;;;;;;5007609;28;20042;-73
2023/09/12 10:04:28;;;;;;;16.65;12.60;;;28.40;99.90;;;;;;4986262;28;20165;-73
2023/09/12 10:06:58;;;;;;;15.05;12.90;;;28.60;99.90;;;;;;4982483;28;20056;-73
2023/09/12 10:09:27;;;;;;;18.70;13.63;;;28.60;99.90;;;;;;4989095;28;20052;-73
2023/09/12 10:11:56;;;;;;;22.23;13.23;;;28.80;99.90;;;;;;5008353;28;20041;-73
2023/09/12 10:14:26;;;;;;;17.90;13.88;;;29.00;99.90;;;;;;4997327;28;20081;-73
2023/09/12 10:17:00;;;;;;;15.30;12.82;;;29.00;99.90;;;;;;4976803;28;20065;-73
2023/09/12 10:19:51;;;;;;;16.70;12.90;;;29.20;99.90;;;;;;5002062;28;20099;-72
2023/09/12 10:22:25;;;;;;;15.77;12.57;;;29.50;99.90;;;;;;5008498;28;20041;-71
2023/09/12 10:24:55;;;;;;;18.95;13.80;;;29.70;99.90;;;;;;5007983;28;20454;-72
2023/09/12 10:27:24;;;;;;;17.15;13.68;;;29.40;99.90;;;;;;5005339;28;20075;-72
2023/09/12 10:29:53;;;;;;;18.40;14.40;;;29.40;99.90;;;;;;4972288;28;20509;-72
2023/09/12 10:32:22;;;;;;;19.40;14.00;;;29.80;99.90;;;;;;4991092;28;20041;-72
2023/09/12 10:34:51;;;;;;;18.13;14.98;;;29.90;99.90;;;;;;5004728;28;20096;-71
2023/09/12 10:37:21;;;;;;;17.58;13.95;;;30.20;99.90;;;;;;4974390;28;20077;-72
2023/09/12 10:39:50;;;;;;;18.73;13.73;;;30.50;99.90;;;;;;5007719;28;20056;-72
2023/09/12 10:42:21;;;;;;;16.10;13.50;;;30.40;99.90;;;;;;5006739;28;20037;-72
2023/09/12 10:44:50;;;;;;;15.55;13.35;;;30.50;99.90;;;;;;4990252;28;20061;-72
2023/09/12 10:47:18;;;;;;;15.82;13.52;;;30.60;99.90;;;;;;5006986;28;20417;-72
2023/09/12 10:49:46;;;;;;;14.65;12.25;;;30.70;99.90;;;;;;4987512;28;20069;-74
2023/09/12 10:52:27;;;;;;;17.15;13.55;;;31.10;99.90;;;;;;5008054;28;20045;-74
2023/09/12 10:54:55;;;;;;;22.73;16.42;;;31.20;99.90;;;;;;4977009;28;20054;-73
2023/09/12 10:57:23;;;;;;;19.08;14.80;;;31.20;99.90;;;;;;5008379;28;20071;-72
2023/09/12 11:00:04;;;;;;;16.52;14.90;;;31.60;99.90;;;;;;5007900;28;20038;-73
2023/09/12 11:03:02;;;;;;;16.70;15.10;;;31.70;99.90;;;;;;4988518;28;20033;-72
2023/09/12 11:05:31;;;;;;;16.50;14.43;;;32.00;99.90;;;;;;4989834;28;20417;-74
2023/09/12 11:07:59;;;;;;;14.55;13.07;;;32.50;99.90;;;;;;5004715;28;20046;-72
2023/09/12 11:10:28;;;;;;;14.32;13.00;;;32.70;99.90;;;;;;4965726;28;20050;-72
2023/09/12 11:12:56;;;;;;;15.93;12.63;;;33.00;99.90;;;;;;4991698;28;20073;-72
2023/09/12 11:15:29;;;;;;;14.77;13.13;;;33.30;99.90;;;;;;4978307;28;20049;-72
2023/09/12 11:18:04;;;;;;;19.23;13.32;;;33.00;99.90;;;;;;4993121;28;20100;-71
2023/09/12 11:20:58;;;;;;;15.05;13.57;;;33.30;99.90;;;;;;5011094;28;20058;-74
2023/09/12 11:23:26;;;;;;;18.83;13.02;;;33.00;99.90;;;;;;5012207;28;20046;-73
2023/09/12 11:26:05;;;;;;;15.15;13.52;;;33.10;99.90;;;;;;5010511;28;20053;-74
2023/09/12 11:28:33;;;;;;;14.55;12.98;;;33.00;99.90;;;;;;5010482;28;20169;-74
2023/09/12 11:31:01;;;;;;;16.65;13.88;;;33.20;99.90;;;;;;4982944;28;20121;-74
2023/09/12 11:33:29;;;;;;;17.85;13.43;;;33.30;99.90;;;;;;5008571;28;20045;-74
2023/09/12 11:36:03;;;;;;;14.90;13.40;;;33.50;99.90;;;;;;4978455;28;20050;-74
2023/09/12 11:38:31;;;;;;;15.00;13.45;;;33.80;99.90;;;;;;5010477;28;20041;-73
2023/09/12 11:41:00;;;;;;;18.05;13.30;;;34.00;99.50;;;;;;5011027;28;20124;-74
2023/09/12 11:43:28;;;;;;;14.75;13.23;;;33.80;99.90;;;;;;5009875;28;20076;-73
2023/09/12 11:45:57;;;;;;;15.07;13.57;;;34.10;98.80;;;;;;4994128;28;20074;-73
2023/09/12 11:48:25;;;;;;;17.80;13.45;;;34.10;98.20;;;;;;5009206;28;20109;-73
2023/09/12 11:50:54;;;;;;;14.63;13.23;;;34.20;98.10;;;;;;4993496;28;20073;-72
2023/09/12 11:53:25;;;;;;;13.73;11.30;;;33.90;98.30;;;;;;5009201;28;20132;-73
2023/09/12 11:55:56;;;;;;;17.25;13.82;;;33.80;98.30;;;;;;5008270;28;20513;-72
2023/09/12 11:58:25;;;;;;;13.18;11.82;;;34.10;97.70;;;;;;5009973;28;20065;-72
2023/09/12 12:00:57;;;;;;;14.80;13.25;;;34.70;97.40;;;;;;5009918;28;20137;-72
2023/09/12 12:03:27;;;;;;;15.07;12.93;;;35.60;96.50;;;;;;4992736;28;20366;-73
2023/09/12 12:05:56;;;;;;;16.42;12.88;;;36.10;94.10;;;;;;4990851;28;20129;-72
2023/09/12 12:08:25;;;;;;;15.52;13.40;;;35.80;93.90;;;;;;5010376;28;20026;-73
2023/09/12 12:10:58;;;;;;;;;;;35.90;93.30;;;;;;5010746;28;20064;-72
2023/09/12 12:13:27;;;;;;;14.88;12.82;;;36.30;92.90;;;;;;4992982;28;19986;-73
2023/09/12 12:15:56;;;;;;;14.60;13.18;;;36.60;91.80;;;;;;4992538;28;20053;-72
2023/09/12 12:18:25;;;;;;;15.15;13.68;;;36.40;91.80;;;;;;5007074;28;20038;-72
2023/09/12 12:20:53;;;;;;;15.00;12.73;;;36.30;91.80;;;;;;4992517;28;20129;-72
2023/09/12 12:23:20;;;;;;;13.93;12.55;;;36.60;91.20;;;;;;4975311;28;20038;-73
2023/09/12 12:25:48;;;;;;;13.63;12.43;;;36.80;90.60;;;;;;4992733;28;20465;-73
2023/09/12 12:28:16;;;;;;;13.45;12.02;;;36.60;90.20;;;;;;5009699;28;20077;-72
2023/09/12 12:30:44;;;;;;;12.63;11.32;;;37.40;89.50;;;;;;5011293;28;20080;-73
2023/09/12 12:33:12;;;;;;;13.85;12.45;;;38.10;85.80;;;;;;5003759;28;20045;-74
2023/09/12 12:36:04;;;;;;;15.20;12.77;;;37.90;85.30;;;;;;5010834;28;20041;-73
2023/09/12 12:38:38;;;;;;;13.32;12.10;;;38.90;82.50;;;;;;4991939;28;20081;-73